Time;durP1;ratioP1;P1;durP2;ratioP2;P2;SDS_P1;SDS_P2;PMS_P1;PMS_P2;Temp;Humidity;BMP_temperature;BMP_pressure;BME280_temperature;BME280_humidity;BME280_pressure;Samples;Min_cycle;Max_cycle;Signal;HPM_P1;HPM_P2
2021/12/28 00:01:49;;;;;;;44.35;24.77;;;2.40;99.90;;;;;;5089264;28;20333;-48
2021/12/28 00:04:15;;;;;;;38.60;23.70;;;2.40;99.90;;;;;;5089545;28;20027;-47
2021/12/28 00:06:40;;;;;;;43.03;25.23;;;2.40;99.90;;;;;;5088818;28;20028;-46
2021/12/28 00:09:06;;;;;;;43.60;24.52;;;2.40;99.90;;;;;;5086043;28;20485;-45
2021/12/28 00:11:31;;;;;;;41.50;26.15;;;2.50;99.90;;;;;;5080552;28;20020;-45
2021/12/28 00:14:01;;;;;;;46.25;26.00;;;2.50;99.90;;;;;;5104651;28;20515;-47
2021/12/28 00:16:34;;;;;;;41.30;22.95;;;2.50;99.90;;;;;;5087793;28;20032;-46
2021/12/28 00:19:00;;;;;;;42.92;25.23;;;2.50;99.90;;;;;;5088572;28;20073;-46
2021/12/28 00:21:26;;;;;;;43.22;24.00;;;2.50;99.90;;;;;;5088820;28;20481;-46
2021/12/28 00:23:52;;;;;;;43.17;25.05;;;2.50;99.90;;;;;;5089241;28;20020;-46
2021/12/28 00:26:20;;;;;;;46.25;24.20;;;2.50;99.90;;;;;;5088798;28;20020;-46
2021/12/28 00:28:45;;;;;;;39.65;23.08;;;2.50;99.90;;;;;;5088349;28;20123;-47
2021/12/28 00:31:13;;;;;;;43.13;25.25;;;2.50;99.90;;;;;;5088787;28;20100;-46
2021/12/28 00:33:39;;;;;;;49.05;25.20;;;2.50;99.90;;;;;;5089246;28;20023;-45
2021/12/28 00:36:04;;;;;;;42.80;23.75;;;2.50;99.90;;;;;;5088981;28;20024;-46
2021/12/28 00:38:31;;;;;;;44.58;25.35;;;2.50;99.90;;;;;;5088163;28;20107;-45
2021/12/28 00:40:59;;;;;;;42.40;24.10;;;2.50;99.90;;;;;;5077381;28;20020;-47
2021/12/28 00:43:26;;;;;;;46.35;26.05;;;2.50;99.90;;;;;;5088847;28;20016;-48
2021/12/28 00:45:52;;;;;;;48.33;26.00;;;2.50;99.90;;;;;;5088771;28;20418;-46
2021/12/28 00:48:17;;;;;;;43.65;24.00;;;2.40;99.90;;;;;;5088115;28;20024;-45
2021/12/28 00:50:44;;;;;;;43.97;25.27;;;2.50;99.90;;;;;;5104241;28;20045;-46
2021/12/28 00:53:10;;;;;;;44.35;23.30;;;2.50;99.90;;;;;;5088449;28;20064;-46
2021/12/28 00:55:36;;;;;;;46.08;25.40;;;2.50;99.90;;;;;;5088253;28;20101;-45
2021/12/28 00:58:02;;;;;;;43.47;24.65;;;2.40;99.90;;;;;;5088066;28;20077;-45
2021/12/28 01:00:30;;;;;;;45.58;25.02;;;2.40;99.90;;;;;;5088769;28;20024;-46
2021/12/28 01:03:00;;;;;;;41.03;24.45;;;2.40;99.90;;;;;;5088421;28;20484;-45
2021/12/28 01:05:27;;;;;;;46.37;24.90;;;2.40;99.90;;;;;;5088341;28;20024;-45
2021/12/28 01:07:54;;;;;;;46.10;25.08;;;2.40;99.90;;;;;;5088069;28;20025;-45
2021/12/28 01:10:23;;;;;;;47.28;27.02;;;2.40;99.90;;;;;;5082610;28;20025;-45
2021/12/28 01:12:49;;;;;;;43.58;24.00;;;2.40;99.90;;;;;;5068502;28;20040;-46
2021/12/28 01:15:16;;;;;;;45.05;25.35;;;2.40;99.90;;;;;;5068515;28;20458;-45
2021/12/28 01:17:42;;;;;;;53.20;25.85;;;2.40;99.90;;;;;;5067549;28;20446;-46
2021/12/28 01:20:10;;;;;;;46.40;25.23;;;2.40;99.90;;;;;;5070813;28;20056;-46
2021/12/28 01:22:36;;;;;;;43.72;24.02;;;2.30;99.90;;;;;;5071999;28;20198;-46
2021/12/28 01:25:04;;;;;;;42.75;24.73;;;2.40;99.90;;;;;;5071666;28;20470;-46
2021/12/28 01:27:30;;;;;;;45.85;24.60;;;2.30;99.90;;;;;;5071243;28;20037;-46
2021/12/28 01:29:55;;;;;;;42.70;24.67;;;2.30;99.90;;;;;;5072175;28;20028;-46
2021/12/28 01:32:21;;;;;;;45.10;24.80;;;2.30;99.90;;;;;;5071850;28;20028;-45
2021/12/28 01:34:46;;;;;;;42.08;23.63;;;2.30;99.90;;;;;;5071873;28;20033;-46
2021/12/28 01:37:12;;;;;;;42.88;24.80;;;2.30;99.90;;;;;;5071376;28;20523;-45
2021/12/28 01:39:38;;;;;;;41.47;23.90;;;2.30;99.90;;;;;;5077521;28;20069;-46
2021/12/28 01:42:06;;;;;;;42.45;24.02;;;2.30;99.90;;;;;;5083393;28;20028;-47
2021/12/28 01:44:35;;;;;;;45.45;25.15;;;2.30;99.90;;;;;;5091973;28;20414;-46
2021/12/28 01:47:00;;;;;;;44.38;24.02;;;2.30;99.90;;;;;;5091733;28;20024;-48
2021/12/28 01:49:26;;;;;;;46.38;25.08;;;2.20;99.90;;;;;;5091223;28;20097;-47
2021/12/28 01:51:52;;;;;;;43.20;23.45;;;2.20;99.90;;;;;;5091826;28;20034;-47
2021/12/28 01:54:18;;;;;;;43.97;23.85;;;2.20;99.90;;;;;;5091397;28;20085;-45
2021/12/28 01:56:46;;;;;;;44.78;23.92;;;2.10;99.90;;;;;;5091566;28;20021;-45
2021/12/28 01:59:15;;;;;;;41.83;23.65;;;2.10;99.90;;;;;;5090892;28;20056;-47
2021/12/28 02:01:41;;;;;;;45.75;25.58;;;2.10;99.90;;;;;;5091213;28;20078;-45
2021/12/28 02:04:21;;;;;;;48.97;24.90;;;2.00;99.90;;;;;;5089997;28;20024;-46
2021/12/28 02:06:47;;;;;;;41.47;23.20;;;2.00;99.90;;;;;;5091254;28;20024;-45
2021/12/28 02:09:13;;;;;;;43.83;23.10;;;2.00;99.90;;;;;;5089536;28;20081;-45
2021/12/28 02:11:40;;;;;;;45.25;24.48;;;2.00;99.90;;;;;;5098412;28;20088;-45
2021/12/28 02:14:08;;;;;;;48.42;25.00;;;2.00;99.90;;;;;;5090986;28;20126;-46
2021/12/28 02:16:37;;;;;;;50.75;25.90;;;2.00;99.90;;;;;;5091417;28;20111;-45
2021/12/28 02:19:04;;;;;;;39.85;23.08;;;2.00;99.90;;;;;;5090660;28;20409;-47
2021/12/28 02:21:33;;;;;;;39.95;23.40;;;2.10;99.90;;;;;;5091422;28;20026;-45
2021/12/28 02:24:00;;;;;;;47.22;25.27;;;2.10;99.90;;;;;;5091259;28;20442;-45
2021/12/28 02:26:25;;;;;;;40.72;22.35;;;2.10;99.90;;;;;;5091416;28;20024;-46
2021/12/28 02:28:51;;;;;;;50.08;24.95;;;2.10;99.90;;;;;;5090824;28;20035;-45
2021/12/28 02:31:17;;;;;;;41.95;21.88;;;2.10;99.90;;;;;;5091038;28;20031;-45
2021/12/28 02:33:43;;;;;;;46.35;22.98;;;2.10;99.90;;;;;;5091017;28;20024;-46
2021/12/28 02:36:08;;;;;;;43.55;24.05;;;2.10;99.90;;;;;;5091050;28;20039;-45
2021/12/28 02:38:35;;;;;;;44.58;25.00;;;2.20;99.90;;;;;;5090403;28;20032;-46
2021/12/28 02:41:01;;;;;;;40.13;24.15;;;2.20;99.90;;;;;;5079563;28;20025;-46
2021/12/28 02:43:27;;;;;;;42.92;22.75;;;2.20;99.90;;;;;;5084151;28;20379;-45
2021/12/28 02:45:57;;;;;;;43.95;24.50;;;2.20;99.90;;;;;;5070451;28;20039;-45
2021/12/28 02:48:23;;;;;;;40.40;22.80;;;2.30;99.90;;;;;;5069591;28;20474;-45
2021/12/28 02:50:54;;;;;;;44.42;23.10;;;2.30;99.90;;;;;;5069934;28;20025;-45
2021/12/28 02:53:20;;;;;;;43.63;23.17;;;2.30;99.90;;;;;;5070371;28;20027;-46
2021/12/28 02:55:48;;;;;;;40.67;23.92;;;2.30;99.90;;;;;;5067704;28;20048;-46
2021/12/28 02:58:23;;;;;;;38.80;22.27;;;2.30;99.90;;;;;;5069574;28;20067;-46
2021/12/28 03:00:52;;;;;;;38.47;22.30;;;2.40;99.90;;;;;;5066830;28;20474;-46
2021/12/28 03:03:22;;;;;;;42.40;23.77;;;2.30;99.90;;;;;;5070131;28;20017;-46
2021/12/28 03:05:50;;;;;;;43.42;23.00;;;2.40;99.90;;;;;;5067088;28;20028;-46
2021/12/28 03:08:19;;;;;;;41.30;20.98;;;2.30;99.90;;;;;;5068867;28;20108;-46
2021/12/28 03:10:45;;;;;;;41.75;21.70;;;2.30;99.90;;;;;;5069571;28;20288;-46
2021/12/28 03:13:22;;;;;;;42.25;21.95;;;2.40;99.90;;;;;;5071468;28;20027;-45
2021/12/28 03:15:48;;;;;;;38.30;22.52;;;2.40;99.90;;;;;;5066822;28;20039;-48
2021/12/28 03:18:14;;;;;;;38.15;22.00;;;2.40;99.90;;;;;;5068129;28;20561;-45
2021/12/28 03:20:40;;;;;;;44.40;20.80;;;2.40;99.90;;;;;;5068999;28;20023;-45
2021/12/28 03:23:05;;;;;;;42.10;22.65;;;2.40;99.90;;;;;;5066696;28;20064;-46
2021/12/28 03:25:32;;;;;;;45.42;22.73;;;2.40;99.90;;;;;;5068166;28;20070;-45
2021/12/28 03:28:00;;;;;;;40.83;21.88;;;2.50;99.90;;;;;;5067574;28;20028;-45
2021/12/28 03:30:25;;;;;;;39.80;22.48;;;2.50;99.90;;;;;;5068395;28;20039;-46
2021/12/28 03:32:51;;;;;;;35.53;20.23;;;2.60;99.90;;;;;;5068955;28;20477;-45
2021/12/28 03:35:18;;;;;;;40.72;21.70;;;2.60;99.90;;;;;;5067987;28;20032;-46
2021/12/28 03:37:44;;;;;;;33.35;21.15;;;2.60;99.90;;;;;;5067951;28;20025;-46
2021/12/28 03:40:13;;;;;;;37.40;20.52;;;2.70;99.90;;;;;;5068736;28;20082;-47
2021/12/28 03:42:39;;;;;;;38.75;20.55;;;2.70;99.90;;;;;;5076213;28;20028;-46
2021/12/28 03:45:06;;;;;;;38.63;21.52;;;2.80;99.90;;;;;;5069200;28;20063;-48
2021/12/28 03:47:33;;;;;;;33.40;19.98;;;2.80;99.90;;;;;;5068336;28;20436;-46
2021/12/28 03:49:58;;;;;;;33.00;19.35;;;2.80;99.90;;;;;;5068965;28;20040;-46
2021/12/28 03:52:24;;;;;;;34.05;19.10;;;2.80;99.90;;;;;;5069344;28;20577;-46
2021/12/28 03:54:49;;;;;;;34.85;20.65;;;2.80;99.90;;;;;;5069045;28;20490;-45
2021/12/28 03:57:15;;;;;;;36.28;20.88;;;2.80;99.90;;;;;;5068793;28;20025;-46
2021/12/28 03:59:40;;;;;;;37.78;21.00;;;2.80;99.90;;;;;;5068835;28;20024;-45
2021/12/28 04:02:06;;;;;;;32.40;19.90;;;2.80;99.90;;;;;;5069006;28;20507;-45
2021/12/28 04:04:32;;;;;;;36.85;21.15;;;2.80;99.90;;;;;;5067837;28;20047;-45
2021/12/28 04:06:58;;;;;;;35.22;20.33;;;2.80;99.90;;;;;;5069034;28;20028;-45
2021/12/28 04:09:46;;;;;;;32.92;18.70;;;2.80;99.90;;;;;;5068085;28;20585;-45
2021/12/28 04:12:09;;;;;;;33.25;19.55;;;2.80;99.90;;;;;;5079033;28;20486;-45
2021/12/28 04:14:35;;;;;;;36.45;20.98;;;2.80;99.90;;;;;;5089558;28;20028;-45
2021/12/28 04:17:00;;;;;;;38.78;21.00;;;2.70;99.90;;;;;;5089130;28;20430;-45
2021/12/28 04:19:26;;;;;;;34.00;19.45;;;2.80;99.90;;;;;;5104109;28;20114;-46
2021/12/28 04:21:51;;;;;;;35.88;20.02;;;2.70;99.90;;;;;;5089149;28;20017;-45
2021/12/28 04:24:17;;;;;;;36.47;21.05;;;2.70;99.90;;;;;;5089019;28;20119;-45
2021/12/28 04:26:42;;;;;;;35.20;20.70;;;2.70;99.90;;;;;;5088798;28;20093;-46
2021/12/28 04:29:08;;;;;;;35.30;19.75;;;2.80;99.90;;;;;;5089034;28;20020;-45
2021/12/28 04:31:34;;;;;;;32.97;19.88;;;2.80;99.90;;;;;;5089116;28;20024;-45
2021/12/28 04:34:00;;;;;;;37.00;20.77;;;2.80;99.90;;;;;;5088953;28;20515;-45
2021/12/28 04:36:25;;;;;;;34.78;20.98;;;2.80;99.90;;;;;;5089358;28;20385;-45
2021/12/28 04:38:51;;;;;;;32.95;19.30;;;2.80;99.90;;;;;;5088486;28;20032;-45
2021/12/28 04:41:16;;;;;;;35.83;20.30;;;2.80;99.90;;;;;;5077581;28;20024;-45
2021/12/28 04:43:43;;;;;;;32.55;19.35;;;2.70;99.90;;;;;;5083698;28;20393;-45
2021/12/28 04:46:08;;;;;;;32.28;18.50;;;2.70;99.90;;;;;;5088720;28;20577;-45
2021/12/28 04:48:35;;;;;;;32.58;19.27;;;2.70;99.90;;;;;;5088416;28;20028;-46
2021/12/28 04:51:01;;;;;;;34.15;19.90;;;2.80;99.90;;;;;;5088746;28;20460;-45
2021/12/28 04:53:26;;;;;;;35.03;19.85;;;2.80;99.90;;;;;;5090252;28;20088;-45
2021/12/28 04:55:52;;;;;;;34.25;18.83;;;2.80;99.90;;;;;;5092627;28;20024;-47
2021/12/28 04:58:20;;;;;;;30.73;18.67;;;2.80;99.90;;;;;;5091002;28;20024;-45
2021/12/28 05:00:48;;;;;;;32.60;17.73;;;2.80;99.90;;;;;;5092671;28;20031;-45
2021/12/28 05:03:14;;;;;;;31.73;18.15;;;2.80;99.90;;;;;;5091525;28;20285;-47
2021/12/28 05:05:43;;;;;;;32.78;19.48;;;2.80;99.90;;;;;;5092893;28;20374;-45
2021/12/28 05:08:12;;;;;;;28.63;17.85;;;2.80;99.90;;;;;;5092347;28;20035;-45
2021/12/28 05:10:39;;;;;;;34.00;18.63;;;2.80;99.90;;;;;;5083968;28;20550;-45
2021/12/28 05:13:05;;;;;;;33.85;18.83;;;2.80;99.90;;;;;;5083925;28;20610;-45
2021/12/28 05:15:31;;;;;;;32.88;18.50;;;2.80;99.90;;;;;;5091008;28;20241;-44
2021/12/28 05:17:56;;;;;;;34.38;19.35;;;2.80;99.90;;;;;;5074711;28;20138;-45
2021/12/28 05:20:23;;;;;;;34.58;18.88;;;2.90;99.90;;;;;;5072271;28;20024;-45
2021/12/28 05:22:48;;;;;;;32.42;18.50;;;2.90;99.90;;;;;;5072070;28;20027;-45
2021/12/28 05:25:14;;;;;;;34.20;19.65;;;2.80;99.90;;;;;;5071802;28;20032;-44
2021/12/28 05:27:41;;;;;;;32.20;19.27;;;2.90;99.90;;;;;;5071325;28;20060;-44
2021/12/28 05:30:09;;;;;;;32.10;20.00;;;2.90;99.90;;;;;;5072329;28;20102;-45
2021/12/28 05:32:35;;;;;;;34.38;20.10;;;2.90;99.90;;;;;;5072029;28;20394;-45
2021/12/28 05:35:02;;;;;;;38.08;21.27;;;2.90;99.90;;;;;;5071873;28;20033;-45
2021/12/28 05:37:27;;;;;;;32.67;19.88;;;2.80;99.90;;;;;;5071160;28;20039;-45
2021/12/28 05:39:53;;;;;;;37.95;20.50;;;2.80;99.90;;;;;;5071358;28;20440;-45
2021/12/28 05:42:19;;;;;;;37.80;20.83;;;2.80;99.90;;;;;;5083283;28;20079;-45
2021/12/28 05:44:44;;;;;;;32.95;19.40;;;2.80;99.90;;;;;;5091870;28;20036;-45
2021/12/28 05:47:10;;;;;;;40.60;22.40;;;2.80;99.90;;;;;;5078229;28;20165;-45
2021/12/28 05:49:36;;;;;;;35.00;20.80;;;2.80;99.90;;;;;;5071356;28;20029;-45
2021/12/28 05:52:01;;;;;;;36.13;20.88;;;2.90;99.90;;;;;;5071112;28;20606;-47
2021/12/28 05:54:27;;;;;;;37.78;22.33;;;2.90;99.90;;;;;;5068717;28;20044;-45
2021/12/28 05:56:53;;;;;;;37.95;20.40;;;2.90;99.90;;;;;;5071072;28;20062;-45
2021/12/28 05:59:18;;;;;;;34.97;21.05;;;2.90;99.90;;;;;;5070560;28;20406;-45
2021/12/28 06:01:43;;;;;;;39.58;22.13;;;2.90;99.90;;;;;;5071156;28;20492;-45
2021/12/28 06:04:11;;;;;;;37.58;20.83;;;2.90;99.90;;;;;;5070899;28;20021;-45
2021/12/28 06:06:36;;;;;;;34.83;19.67;;;2.90;99.90;;;;;;5069839;28;20505;-45
2021/12/28 06:09:03;;;;;;;35.28;20.77;;;2.80;99.90;;;;;;5070173;28;20021;-45
2021/12/28 06:11:28;;;;;;;39.92;22.38;;;2.80;99.90;;;;;;5070839;28;20027;-45
2021/12/28 06:13:54;;;;;;;38.00;21.55;;;2.80;99.90;;;;;;5071131;28;20021;-45
2021/12/28 06:16:19;;;;;;;32.97;20.13;;;2.80;99.90;;;;;;5070738;28;20036;-45
2021/12/28 06:18:45;;;;;;;36.78;20.88;;;2.80;99.90;;;;;;5069970;28;20024;-48
2021/12/28 06:21:10;;;;;;;41.45;22.67;;;2.70;99.90;;;;;;5070506;28;20024;-45
2021/12/28 06:23:36;;;;;;;37.10;20.38;;;2.70;99.90;;;;;;5096734;28;20426;-45
2021/12/28 06:26:02;;;;;;;36.28;21.67;;;2.70;99.90;;;;;;5069650;28;20108;-45
2021/12/28 06:28:28;;;;;;;34.95;20.27;;;2.70;99.90;;;;;;5067638;28;20060;-45
2021/12/28 06:30:53;;;;;;;37.45;22.08;;;2.70;99.90;;;;;;5070708;28;20048;-48
2021/12/28 06:33:20;;;;;;;38.28;21.42;;;2.70;99.90;;;;;;5081526;28;20098;-45
2021/12/28 06:35:47;;;;;;;43.08;22.80;;;2.70;99.90;;;;;;5090798;28;20074;-45
2021/12/28 06:38:13;;;;;;;35.50;20.98;;;2.70;99.90;;;;;;5090521;28;20031;-46
2021/12/28 06:40:38;;;;;;;39.80;22.00;;;2.70;99.90;;;;;;5079286;28;20503;-45
2021/12/28 06:43:04;;;;;;;40.42;22.17;;;2.70;99.90;;;;;;5085736;28;20038;-45
2021/12/28 06:45:29;;;;;;;36.78;21.73;;;2.70;99.90;;;;;;5080395;28;20032;-45
2021/12/28 06:47:55;;;;;;;38.67;20.63;;;2.70;99.90;;;;;;5070079;28;20037;-45
2021/12/28 06:50:20;;;;;;;36.20;20.88;;;2.70;99.90;;;;;;5085914;28;20115;-45
2021/12/28 06:52:46;;;;;;;39.47;22.15;;;2.70;99.90;;;;;;5074977;28;20042;-45
2021/12/28 06:55:11;;;;;;;31.48;19.17;;;2.70;99.90;;;;;;5082235;28;20029;-47
2021/12/28 06:57:38;;;;;;;37.35;19.63;;;2.70;99.90;;;;;;5079428;28;20140;-46
2021/12/28 07:00:11;;;;;;;34.90;19.98;;;2.70;99.90;;;;;;5073468;28;20039;-45
2021/12/28 07:02:37;;;;;;;37.58;20.27;;;2.70;99.90;;;;;;5070295;28;20085;-45
2021/12/28 07:05:04;;;;;;;35.17;20.02;;;2.70;99.90;;;;;;5079102;28;20615;-46
2021/12/28 07:07:29;;;;;;;38.25;20.50;;;2.70;99.90;;;;;;5068246;28;20231;-46
2021/12/28 07:09:55;;;;;;;34.47;20.83;;;2.70;99.90;;;;;;5100148;28;20028;-46
2021/12/28 07:12:20;;;;;;;35.97;20.25;;;2.80;99.90;;;;;;5075599;28;20054;-45
2021/12/28 07:14:47;;;;;;;32.80;20.08;;;2.80;99.90;;;;;;5077010;28;20021;-45
2021/12/28 07:17:12;;;;;;;33.03;19.63;;;2.80;99.90;;;;;;5088844;28;20031;-45
2021/12/28 07:19:37;;;;;;;36.78;20.38;;;2.80;99.90;;;;;;5090397;28;20028;-45
2021/12/28 07:22:03;;;;;;;35.40;19.98;;;2.80;99.90;;;;;;5090487;28;20020;-45
2021/12/28 07:24:30;;;;;;;37.53;21.77;;;2.80;99.90;;;;;;5090036;28;20178;-45
2021/12/28 07:26:56;;;;;;;32.53;19.45;;;2.80;99.90;;;;;;5089954;28;20023;-45
2021/12/28 07:29:21;;;;;;;37.45;20.55;;;2.90;99.90;;;;;;5089479;28;20032;-46
2021/12/28 07:31:47;;;;;;;33.63;20.20;;;2.90;99.90;;;;;;5090122;28;20032;-46
2021/12/28 07:34:12;;;;;;;35.85;20.35;;;2.90;99.90;;;;;;5090085;28;20020;-47
2021/12/28 07:36:38;;;;;;;32.53;18.90;;;2.90;99.90;;;;;;5088920;28;20032;-45
2021/12/28 07:39:05;;;;;;;35.40;20.42;;;2.90;99.90;;;;;;5076386;28;20177;-45
2021/12/28 07:41:31;;;;;;;35.70;19.58;;;2.90;99.90;;;;;;5071432;28;20474;-45
2021/12/28 07:43:58;;;;;;;33.95;19.23;;;2.90;99.90;;;;;;5069546;28;20097;-45
2021/12/28 07:46:23;;;;;;;37.45;20.90;;;2.90;99.90;;;;;;5067437;28;20150;-45
2021/12/28 07:48:49;;;;;;;36.15;20.27;;;3.00;99.90;;;;;;5068069;28;20501;-45
2021/12/28 07:51:15;;;;;;;34.15;20.13;;;3.00;99.90;;;;;;5069310;28;20025;-45
2021/12/28 07:53:40;;;;;;;32.92;19.90;;;3.00;99.90;;;;;;5069090;28;20036;-45
2021/12/28 07:56:06;;;;;;;35.50;20.67;;;3.00;99.90;;;;;;5069153;28;20082;-45
2021/12/28 07:58:32;;;;;;;38.20;20.63;;;3.00;99.90;;;;;;5068584;28;20037;-46
2021/12/28 08:00:57;;;;;;;33.22;20.75;;;3.00;99.90;;;;;;5069083;28;20036;-45
2021/12/28 08:03:24;;;;;;;32.97;19.10;;;3.00;99.90;;;;;;5068985;28;20025;-46
2021/12/28 08:05:50;;;;;;;31.38;18.15;;;3.00;99.90;;;;;;5069007;28;20293;-46
2021/12/28 08:08:16;;;;;;;34.60;19.35;;;3.10;99.90;;;;;;5068403;28;20358;-46
2021/12/28 08:10:42;;;;;;;34.75;19.70;;;3.00;99.90;;;;;;5073537;28;20024;-47
2021/12/28 08:13:08;;;;;;;33.28;19.15;;;3.10;99.90;;;;;;5080875;28;20058;-46
2021/12/28 08:15:33;;;;;;;34.72;19.02;;;3.10;99.90;;;;;;5089097;28;20024;-48
2021/12/28 08:17:59;;;;;;;33.28;19.30;;;3.10;99.90;;;;;;5086109;28;20131;-45
2021/12/28 08:20:25;;;;;;;31.08;18.80;;;3.20;99.90;;;;;;5068592;28;20024;-48
2021/12/28 08:22:51;;;;;;;35.25;19.48;;;3.20;99.90;;;;;;5068622;28;20509;-45
2021/12/28 08:25:19;;;;;;;36.70;20.73;;;3.20;99.90;;;;;;5068494;28;20017;-48
2021/12/28 08:27:45;;;;;;;34.88;19.20;;;3.30;99.90;;;;;;5067674;28;20025;-45
2021/12/28 08:30:13;;;;;;;31.00;18.73;;;3.40;99.90;;;;;;5068504;28;20401;-47
2021/12/28 08:32:39;;;;;;;34.72;19.30;;;3.30;99.90;;;;;;5068876;28;20026;-48
2021/12/28 08:35:06;;;;;;;35.47;20.60;;;3.40;99.90;;;;;;5068278;28;20059;-46
2021/12/28 08:37:32;;;;;;;53.58;29.75;;;3.50;99.90;;;;;;5067570;28;20066;-45
2021/12/28 08:39:58;;;;;;;45.35;24.98;;;3.50;99.90;;;;;;5068538;28;20028;-45
2021/12/28 08:42:24;;;;;;;40.17;19.83;;;3.60;99.90;;;;;;5080137;28;20362;-45
2021/12/28 08:44:50;;;;;;;34.17;18.30;;;3.60;99.90;;;;;;5088455;28;20032;-46
2021/12/28 08:47:16;;;;;;;32.53;19.15;;;3.70;99.90;;;;;;5087992;28;20028;-45
2021/12/28 08:49:42;;;;;;;36.58;19.80;;;3.70;99.90;;;;;;5070488;28;20107;-45
2021/12/28 08:52:07;;;;;;;32.70;19.13;;;3.80;99.90;;;;;;5067871;28;20111;-46
2021/12/28 08:54:33;;;;;;;30.23;18.30;;;3.80;99.90;;;;;;5067524;28;20327;-45
2021/12/28 08:56:59;;;;;;;36.95;19.75;;;3.80;99.90;;;;;;5068369;28;20029;-45
2021/12/28 08:59:25;;;;;;;30.52;18.20;;;3.90;99.90;;;;;;5067441;28;20024;-46
2021/12/28 09:01:51;;;;;;;32.22;19.80;;;3.90;99.90;;;;;;5067960;28;20031;-46
2021/12/28 09:04:18;;;;;;;32.67;18.75;;;4.00;99.90;;;;;;5068284;28;20108;-45
2021/12/28 09:06:44;;;;;;;36.05;19.42;;;4.00;99.90;;;;;;5068328;28;20029;-45
2021/12/28 09:09:10;;;;;;;33.47;19.40;;;4.00;99.90;;;;;;5067610;28;20278;-45
2021/12/28 09:11:36;;;;;;;33.47;18.70;;;4.00;99.90;;;;;;5075654;28;20021;-46
2021/12/28 09:14:02;;;;;;;32.15;17.65;;;4.10;99.90;;;;;;5085958;28;20050;-45
2021/12/28 09:16:28;;;;;;;40.50;18.83;;;4.10;99.90;;;;;;5088397;28;20031;-46
2021/12/28 09:18:53;;;;;;;30.30;18.00;;;4.20;99.90;;;;;;5087637;28;20020;-46
2021/12/28 09:21:19;;;;;;;28.42;16.52;;;4.30;99.90;;;;;;5088402;28;20039;-45
2021/12/28 09:23:44;;;;;;;33.90;18.35;;;4.30;99.90;;;;;;5088464;28;20088;-45
2021/12/28 09:26:10;;;;;;;30.73;17.98;;;4.40;99.90;;;;;;5069545;28;20025;-46
2021/12/28 09:28:35;;;;;;;31.13;17.33;;;4.40;99.90;;;;;;5062108;28;20055;-46
2021/12/28 09:31:02;;;;;;;29.65;17.50;;;4.30;99.90;;;;;;5066689;28;20051;-46
2021/12/28 09:33:27;;;;;;;27.75;17.92;;;4.20;99.90;;;;;;5066712;28;20477;-50
2021/12/28 09:35:53;;;;;;;37.40;17.98;;;4.30;99.90;;;;;;5064215;28;20029;-45
2021/12/28 09:38:21;;;;;;;30.92;18.08;;;4.30;99.90;;;;;;5066013;28;20490;-45
2021/12/28 09:40:47;;;;;;;25.15;16.25;;;4.40;99.90;;;;;;5075250;28;20020;-45
2021/12/28 09:43:14;;;;;;;31.60;17.65;;;4.60;99.90;;;;;;5083204;28;20032;-46
2021/12/28 09:45:40;;;;;;;28.75;16.83;;;4.80;99.90;;;;;;5091581;28;20110;-45
2021/12/28 09:48:06;;;;;;;32.58;16.85;;;4.90;99.90;;;;;;5090551;28;20028;-45
2021/12/28 09:50:34;;;;;;;28.58;16.15;;;5.10;99.90;;;;;;5091364;28;20120;-46
2021/12/28 09:53:00;;;;;;;31.48;17.77;;;5.20;99.90;;;;;;5091367;28;20149;-47
2021/12/28 09:55:27;;;;;;;30.67;17.50;;;5.30;99.90;;;;;;5091068;28;20028;-45
2021/12/28 09:57:53;;;;;;;27.20;17.25;;;5.60;99.90;;;;;;5089220;28;20020;-45
2021/12/28 10:00:20;;;;;;;30.25;16.20;;;5.60;99.90;;;;;;5070699;28;20017;-46
2021/12/28 10:02:46;;;;;;;29.58;16.92;;;5.80;99.90;;;;;;5070852;28;20024;-46
2021/12/28 10:05:16;;;;;;;31.00;16.77;;;5.80;99.90;;;;;;5071103;28;20016;-47
2021/12/28 10:07:56;;;;;;;24.67;15.90;;;5.90;99.90;;;;;;5070247;28;20024;-48
2021/12/28 10:10:24;;;;;;;24.10;15.15;;;5.90;99.90;;;;;;5070893;28;20440;-45
2021/12/28 10:12:53;;;;;;;21.35;14.52;;;5.90;99.90;;;;;;5086884;28;20032;-44
2021/12/28 10:15:25;;;;;;;28.45;15.77;;;6.00;99.90;;;;;;5077344;28;20033;-45
2021/12/28 10:17:54;;;;;;;26.40;14.93;;;6.00;99.90;;;;;;5069054;28;20025;-46
2021/12/28 10:20:25;;;;;;;30.45;15.93;;;6.00;99.90;;;;;;5069785;28;20024;-45
2021/12/28 10:22:58;;;;;;;25.00;14.77;;;6.00;99.90;;;;;;5071045;28;20323;-45
2021/12/28 10:25:27;;;;;;;24.27;13.70;;;6.00;99.90;;;;;;5061989;28;20470;-45
2021/12/28 10:28:03;;;;;;;31.73;15.82;;;5.90;99.90;;;;;;5070890;28;20020;-45
2021/12/28 10:30:34;;;;;;;22.30;14.65;;;5.80;99.90;;;;;;5074048;28;20028;-45
2021/12/28 10:33:03;;;;;;;27.45;13.63;;;5.80;99.90;;;;;;5074033;28;20159;-46
2021/12/28 10:35:33;;;;;;;27.10;14.80;;;5.70;99.90;;;;;;5069868;28;20033;-46
2021/12/28 10:38:08;;;;;;;26.15;14.90;;;5.90;99.90;;;;;;5073991;28;20051;-45
2021/12/28 10:40:42;;;;;;;24.98;14.98;;;6.10;99.90;;;;;;5073996;28;20406;-45
2021/12/28 10:43:13;;;;;;;23.35;13.32;;;6.20;99.90;;;;;;5075270;28;20037;-45
2021/12/28 10:45:51;;;;;;;22.63;12.65;;;6.50;99.90;;;;;;5076443;28;20042;-47
2021/12/28 10:48:21;;;;;;;22.13;11.00;;;7.00;99.90;;;;;;5081596;28;20389;-45
2021/12/28 10:51:00;;;;;;;25.10;10.97;;;8.10;99.90;;;;;;5082658;28;20362;-46
2021/12/28 10:53:36;;;;;;;16.67;10.93;;;9.90;99.90;;;;;;5078259;28;20567;-46
2021/12/28 10:56:09;;;;;;;17.60;9.25;;;10.40;99.90;;;;;;5076348;28;20101;-46
2021/12/28 10:58:40;;;;;;;17.73;8.48;;;11.30;99.90;;;;;;5084308;28;20470;-49
2021/12/28 11:01:07;;;;;;;17.13;9.25;;;11.70;99.90;;;;;;5088987;28;20095;-46
2021/12/28 11:03:35;;;;;;;16.77;9.57;;;11.30;99.90;;;;;;5089206;28;20464;-48
2021/12/28 11:06:06;;;;;;;23.00;9.82;;;11.00;99.90;;;;;;5089347;28;20588;-46
2021/12/28 11:08:32;;;;;;;20.48;10.23;;;10.50;99.90;;;;;;5088783;28;20386;-45
2021/12/28 11:11:05;;;;;;;18.15;9.18;;;10.10;99.90;;;;;;5083440;28;20024;-46
2021/12/28 11:13:32;;;;;;;14.55;8.55;;;9.70;99.90;;;;;;5076792;28;20020;-47
2021/12/28 11:15:59;;;;;;;17.88;10.30;;;9.10;99.90;;;;;;5070075;28;20017;-45
2021/12/28 11:18:30;;;;;;;18.45;9.80;;;8.90;99.90;;;;;;5072321;28;20031;-45
2021/12/28 11:20:58;;;;;;;14.50;9.23;;;8.60;99.90;;;;;;5078219;28;20031;-45
2021/12/28 11:23:27;;;;;;;17.83;9.55;;;8.40;99.90;;;;;;5078328;28;20167;-45
2021/12/28 11:26:09;;;;;;;19.15;10.50;;;8.20;99.90;;;;;;5079493;28;20028;-46
2021/12/28 11:28:37;;;;;;;18.33;10.80;;;8.00;99.90;;;;;;5077686;28;20021;-47
2021/12/28 11:31:25;;;;;;;19.75;11.18;;;7.90;99.90;;;;;;5065335;28;20505;-46
2021/12/28 11:33:58;;;;;;;18.52;10.20;;;7.60;99.90;;;;;;5049524;28;20025;-45
2021/12/28 11:36:36;;;;;;;19.67;11.25;;;7.50;99.90;;;;;;5060673;28;20020;-46
2021/12/28 11:39:06;;;;;;;14.40;9.13;;;7.30;99.90;;;;;;5068855;28;20043;-46
2021/12/28 11:41:32;;;;;;;16.50;9.68;;;7.10;99.90;;;;;;5077746;28;20028;-45
2021/12/28 11:43:59;;;;;;;16.25;9.52;;;7.00;99.90;;;;;;5082683;28;20028;-46
2021/12/28 11:46:26;;;;;;;17.08;9.77;;;6.90;99.90;;;;;;5068142;28;20020;-46
2021/12/28 11:48:53;;;;;;;14.20;8.63;;;6.70;99.90;;;;;;5068475;28;20398;-47
2021/12/28 11:51:20;;;;;;;18.88;9.75;;;6.70;99.90;;;;;;5062509;28;20477;-46
2021/12/28 11:53:47;;;;;;;19.50;10.38;;;6.70;99.90;;;;;;5058398;28;20460;-47
2021/12/28 11:56:18;;;;;;;18.35;9.50;;;6.60;99.90;;;;;;5056836;28;20086;-45
2021/12/28 11:58:48;;;;;;;19.17;9.45;;;6.60;99.90;;;;;;5058336;28;20360;-46
2021/12/28 12:01:41;;;;;;;17.58;9.88;;;6.50;99.90;;;;;;5064426;28;20036;-46
2021/12/28 12:04:34;;;;;;;17.17;9.55;;;6.50;99.90;;;;;;5066701;28;20025;-46
2021/12/28 12:07:05;;;;;;;22.20;9.73;;;6.40;99.90;;;;;;5070640;28;20520;-45
2021/12/28 12:09:33;;;;;;;18.83;9.75;;;6.30;99.90;;;;;;5075514;28;20382;-46
2021/12/28 12:12:08;;;;;;;19.15;10.73;;;6.30;99.90;;;;;;5073606;28;20028;-48
2021/12/28 12:17:39;;;;;;;21.38;10.10;;;6.30;99.90;;;;;;5069926;28;20032;-46
2021/12/28 12:20:30;;;;;;;17.35;9.25;;;6.30;99.90;;;;;;5067455;28;20033;-45
2021/12/28 12:23:07;;;;;;;19.73;8.77;;;6.20;99.90;;;;;;5076175;28;20089;-48
2021/12/28 12:26:01;;;;;;;18.75;9.50;;;6.20;99.90;;;;;;5073290;28;20218;-46
2021/12/28 12:28:34;;;;;;;17.05;9.50;;;6.20;99.90;;;;;;5076958;28;20425;-45
2021/12/28 12:31:01;;;;;;;15.55;8.60;;;6.20;99.90;;;;;;5076417;28;20202;-48
2021/12/28 12:33:36;;;;;;;16.20;8.27;;;6.30;99.90;;;;;;5082479;28;20017;-45
2021/12/28 12:36:03;;;;;;;15.85;8.60;;;6.30;99.90;;;;;;5087750;28;20173;-45
2021/12/28 12:38:32;;;;;;;15.45;8.60;;;6.30;99.90;;;;;;5086896;28;20016;-46
2021/12/28 12:41:08;;;;;;;19.40;9.30;;;6.30;99.90;;;;;;5077005;28;20033;-45
2021/12/28 12:43:37;;;;;;;20.27;9.10;;;6.30;99.90;;;;;;5072719;28;20024;-45